Terminal Aerodrome Forecast
Issued by NWS

Home | Current Version | Previous Version | Text Only | Print | Product List | Glossary On
Versions: 1 2 3 4 5 6 7 8 9 10 11 12 13 14 15 16 17 18 19
000
FTUS45 KPSR 222330
TAFSDL
TAF
KSDL 222330Z 2300/2324 VRB04KT P6SM BKN100
     FM231000 15005KT P6SM VCSH BKN060 OVC100 PROB30 2312/2318
      17012KT 6SM -SHRA BKN040
     FM231800 21006KT P6SM VCSH BKN050 PROB30 2318/2324 24010KT 5SM
      -RA BKN030=

USA.gov is the U.S. government's official web portal to all federal, state and local government web resources and services.